Time;durP1;ratioP1;P1;durP2;ratioP2;P2;SDS_P1;SDS_P2;PMS_P1;PMS_P2;Temp;Humidity;BMP_temperature;BMP_pressure;BME280_temperature;BME280_humidity;BME280_pressure;Samples;Min_cycle;Max_cycle;Signal;HPM_P1;HPM_P2
2021/05/17 00:00:43;0.00;0.00;0.62;0.00;0.00;0.62;2.40;2.03;;;27.40;25.70;;;;;;2225129;62;20390;-64
2021/05/17 00:03:10;0.00;0.00;0.62;0.00;0.00;0.62;3.53;1.87;;;27.40;25.80;;;;;;2226346;62;20456;-64
2021/05/17 00:05:37;0.00;0.00;0.62;0.00;0.00;0.62;2.50;2.23;;;27.40;25.70;;;;;;2225793;62;20398;-64
2021/05/17 00:08:05;0.00;0.00;0.62;0.00;0.00;0.62;2.87;1.90;;;27.40;25.80;;;;;;2225036;62;20372;-63
2021/05/17 00:10:32;0.00;0.00;0.62;0.00;0.00;0.62;3.77;1.73;;;27.40;25.70;;;;;;2226225;62;20363;-63
2021/05/17 00:12:59;0.00;0.00;0.62;0.00;0.00;0.62;3.63;1.90;;;27.40;25.70;;;;;;2225627;62;20419;-64
2021/05/17 00:15:26;0.00;0.00;0.62;0.00;0.00;0.62;4.77;2.10;;;27.40;25.70;;;;;;2225191;62;20359;-65
2021/05/17 00:17:57;0.00;0.00;0.62;0.00;0.00;0.62;3.00;1.93;;;27.40;25.70;;;;;;2226111;62;20390;-64
2021/05/17 00:20:25;0.00;0.00;0.62;0.00;0.00;0.62;3.67;1.87;;;27.30;25.70;;;;;;2225634;62;20606;-65
2021/05/17 00:22:52;0.00;0.00;0.62;0.00;0.00;0.62;2.43;1.60;;;27.30;25.70;;;;;;2225276;62;20584;-64
2021/05/17 00:25:25;0.00;0.00;0.62;0.00;0.00;0.62;3.30;1.67;;;27.30;26.20;;;;;;2225945;62;20395;-64
2021/05/17 00:27:54;0.00;0.00;0.62;0.00;0.00;0.62;2.57;1.87;;;27.30;25.70;;;;;;2225379;62;20399;-64
2021/05/17 00:30:25;0.00;0.00;0.62;0.00;0.00;0.62;2.10;1.60;;;27.30;25.70;;;;;;2225147;62;20402;-65
2021/05/17 00:32:54;0.00;0.00;0.62;0.00;0.00;0.62;3.50;2.17;;;27.30;25.60;;;;;;2225970;62;20577;-63
2021/05/17 00:35:22;0.00;0.00;0.62;0.00;0.00;0.62;2.23;1.57;;;27.30;25.60;;;;;;2225605;62;20703;-63
2021/05/17 00:37:49;0.00;0.00;0.62;0.00;0.00;0.62;2.10;1.50;;;27.20;25.60;;;;;;2225210;62;20383;-63
2021/05/17 00:40:18;0.00;0.00;0.62;0.00;0.00;0.62;2.10;1.57;;;27.20;25.60;;;;;;2226018;62;20372;-65
2021/05/17 00:42:47;0.00;0.00;0.62;0.00;0.00;0.62;3.50;1.70;;;27.20;25.60;;;;;;2225441;62;20696;-63
2021/05/17 00:45:17;0.00;0.00;0.62;0.00;0.00;0.62;4.60;1.40;;;27.20;25.60;;;;;;2227718;62;20649;-65
2021/05/17 00:47:47;0.00;0.00;0.62;0.00;0.00;0.62;3.07;1.40;;;27.20;25.60;;;;;;2225795;62;20383;-65
2021/05/17 00:50:20;0.00;0.00;0.62;0.00;0.00;0.62;2.73;1.50;;;27.20;25.60;;;;;;2224879;62;20386;-63
2021/05/17 00:52:47;0.00;0.00;0.62;0.00;0.00;0.62;2.63;1.57;;;27.20;25.60;;;;;;2225116;62;20363;-65
2021/05/17 00:55:16;0.00;0.00;0.62;0.00;0.00;0.62;2.20;1.53;;;27.20;25.50;;;;;;2226073;62;20363;-64
2021/05/17 00:57:44;0.00;0.00;0.62;0.00;0.00;0.62;5.20;1.43;;;27.10;25.50;;;;;;2225280;62;20396;-65
2021/05/17 01:00:14;0.00;0.00;0.62;0.00;0.00;0.62;2.07;1.50;;;27.10;25.50;;;;;;2227826;62;20695;-63
2021/05/17 01:02:52;0.00;0.00;0.62;0.00;0.00;0.62;3.57;1.47;;;27.10;25.50;;;;;;2225383;62;20355;-64
2021/05/17 01:05:34;0.00;0.00;0.62;0.00;0.00;0.62;3.87;1.90;;;27.10;25.50;;;;;;2228178;62;20790;-63
2021/05/17 01:08:02;0.00;0.00;0.62;0.00;0.00;0.62;2.90;1.63;;;27.10;25.50;;;;;;2225175;62;20384;-63
2021/05/17 01:10:31;0.00;0.00;0.62;0.00;0.00;0.62;2.27;1.40;;;27.10;25.50;;;;;;2226510;62;20559;-64
2021/05/17 01:12:59;0.00;0.00;0.62;0.00;0.00;0.62;2.70;1.50;;;27.10;25.60;;;;;;2228682;62;20359;-64
2021/05/17 01:15:27;0.00;0.00;0.62;0.00;0.00;0.62;2.30;1.20;;;27.10;25.60;;;;;;2228588;62;20703;-63
2021/05/17 01:17:55;0.00;0.00;0.62;0.00;0.00;0.62;1.90;1.10;;;27.00;25.60;;;;;;2226338;62;20688;-64
2021/05/17 01:20:27;0.00;0.00;0.62;0.00;0.00;0.62;2.40;1.30;;;27.00;25.60;;;;;;2228722;62;20367;-64
2021/05/17 01:23:19;0.00;0.00;0.62;0.00;0.00;0.62;1.80;1.10;;;27.00;25.60;;;;;;2228739;62;20363;-64
2021/05/17 01:25:45;0.00;0.00;0.62;0.00;0.00;0.62;2.27;1.40;;;27.00;25.50;;;;;;2226286;62;20387;-64
2021/05/17 01:28:20;0.00;0.00;0.62;0.00;0.00;0.62;2.53;1.33;;;27.00;25.60;;;;;;2228425;62;20387;-65
2021/05/17 01:30:48;0.00;0.00;0.62;0.00;0.00;0.62;2.23;1.40;;;27.00;25.70;;;;;;2225901;62;20393;-64
2021/05/17 01:33:15;0.00;0.00;0.62;0.00;0.00;0.62;1.40;1.20;;;27.00;25.70;;;;;;2229140;62;20364;-65
2021/05/17 01:35:48;0.00;0.00;0.62;0.00;0.00;0.62;2.50;1.20;;;27.00;25.70;;;;;;2228613;62;20359;-65
2021/05/17 01:38:18;0.00;0.00;0.62;0.00;0.00;0.62;4.43;1.50;;;27.00;25.60;;;;;;2225648;62;20383;-63
2021/05/17 01:40:46;0.00;0.00;0.62;0.00;0.00;0.62;1.77;1.10;;;27.00;25.60;;;;;;2229257;62;20395;-65
2021/05/17 01:43:15;0.00;0.00;0.62;0.00;0.00;0.62;1.83;1.00;;;26.90;25.50;;;;;;2228586;62;20364;-64
2021/05/17 01:45:43;0.00;0.00;0.62;0.00;0.00;0.62;1.93;1.33;;;26.90;25.60;;;;;;2225235;62;20407;-63
2021/05/17 01:48:10;0.00;0.00;0.62;0.00;0.00;0.62;1.93;1.20;;;26.90;25.50;;;;;;2229059;62;20392;-63
2021/05/17 01:50:38;0.00;0.00;0.62;0.00;0.00;0.62;1.67;1.07;;;26.90;25.50;;;;;;2225873;62;20617;-64
2021/05/17 01:53:06;0.00;0.00;0.62;0.00;0.00;0.62;1.60;0.90;;;26.90;25.50;;;;;;2225117;62;20374;-63
2021/05/17 01:55:34;0.00;0.00;0.62;0.00;0.00;0.62;2.10;1.00;;;26.90;25.50;;;;;;2229317;62;20399;-64
2021/05/17 01:58:09;0.00;0.00;0.62;0.00;0.00;0.62;1.50;0.90;;;26.90;25.50;;;;;;2225775;62;20387;-65
2021/05/17 02:00:42;0.00;0.00;0.62;0.00;0.00;0.62;1.90;1.10;;;26.80;25.50;;;;;;2225996;62;20419;-65
2021/05/17 02:03:09;0.00;0.00;0.62;0.00;0.00;0.62;1.93;1.20;;;26.80;25.50;;;;;;2226430;62;20364;-64
2021/05/17 02:05:36;0.00;0.00;0.62;0.00;0.00;0.62;1.70;1.30;;;26.80;25.50;;;;;;2224997;62;20387;-65
2021/05/17 02:08:09;0.00;0.00;0.62;0.00;0.00;0.62;1.60;0.90;;;26.80;25.50;;;;;;2228547;62;20383;-65
2021/05/17 02:10:38;0.00;0.00;0.62;0.00;0.00;0.62;2.10;1.17;;;26.80;25.50;;;;;;2229183;62;20367;-65
2021/05/17 02:13:07;0.00;0.00;0.62;0.00;0.00;0.62;2.40;1.03;;;26.80;25.50;;;;;;2225339;62;20371;-65
2021/05/17 02:15:36;0.00;0.00;0.62;0.00;0.00;0.62;1.97;1.00;;;26.80;25.60;;;;;;2228674;62;20355;-64
2021/05/17 02:18:07;0.00;0.00;0.62;0.00;0.00;0.62;2.27;1.10;;;26.80;25.50;;;;;;2229058;62;20394;-65
2021/05/17 02:20:37;0.00;0.00;0.62;0.00;0.00;0.62;1.70;0.90;;;26.80;25.50;;;;;;2225443;62;20723;-63
2021/05/17 02:23:05;0.00;0.00;0.62;0.00;0.00;0.62;1.40;0.90;;;26.70;25.50;;;;;;2228863;62;20364;-64
2021/05/17 02:25:32;0.00;0.00;0.62;0.00;0.00;0.62;1.43;0.90;;;26.70;25.50;;;;;;2225795;62;20810;-64
2021/05/17 02:28:03;0.00;0.00;0.62;0.00;0.00;0.62;2.23;1.13;;;26.70;25.50;;;;;;2225301;62;20380;-63
2021/05/17 02:30:31;0.00;0.00;0.62;0.00;0.00;0.62;1.77;0.80;;;26.70;25.60;;;;;;2226182;62;20371;-65
2021/05/17 02:32:59;0.00;0.00;0.62;0.00;0.00;0.62;1.70;1.20;;;26.70;25.50;;;;;;2226135;62;20403;-64
2021/05/17 02:35:30;0.00;0.00;0.62;0.00;0.00;0.62;1.40;0.83;;;26.70;25.50;;;;;;2228333;62;20367;-65
2021/05/17 02:37:57;0.00;0.00;0.62;0.00;0.00;0.62;1.47;0.93;;;26.70;25.60;;;;;;2225562;62;20727;-63
2021/05/17 02:40:25;0.00;0.00;0.62;0.00;0.00;0.62;1.30;0.87;;;26.70;25.60;;;;;;2226029;62;20372;-63
2021/05/17 02:43:00;0.00;0.00;0.62;0.00;0.00;0.62;1.90;0.90;;;26.60;25.50;;;;;;2225050;62;20360;-65
2021/05/17 02:45:37;0.00;0.00;0.62;0.00;0.00;0.62;1.80;1.10;;;26.60;25.50;;;;;;2226294;62;20731;-63
2021/05/17 02:48:08;0.00;0.00;0.62;0.00;0.00;0.62;1.90;0.90;;;26.60;25.50;;;;;;2228344;62;20412;-63
2021/05/17 02:50:37;0.00;0.00;0.62;0.00;0.00;0.62;2.90;1.00;;;26.60;25.50;;;;;;2227946;62;20601;-65
2021/05/17 02:53:27;0.00;0.00;0.62;0.00;0.00;0.62;1.73;1.20;;;26.60;25.70;;;;;;2226116;62;20679;-64
2021/05/17 02:55:55;0.00;0.00;0.62;0.00;0.00;0.62;1.53;0.80;;;26.60;25.70;;;;;;2225853;62;20360;-63
2021/05/17 02:58:24;0.00;0.00;0.62;0.00;0.00;0.62;1.57;1.00;;;26.60;25.70;;;;;;2227790;62;20407;-64
2021/05/17 03:01:03;0.00;0.00;0.62;0.00;0.00;0.62;2.33;0.83;;;26.60;25.70;;;;;;2228959;62;20363;-65
2021/05/17 03:03:34;0.00;0.00;0.62;0.00;0.00;0.62;1.50;0.80;;;26.50;25.70;;;;;;2228349;62;20367;-63
2021/05/17 03:06:07;0.00;0.00;0.62;0.00;0.00;0.62;2.10;1.20;;;26.50;25.60;;;;;;2224887;62;20368;-65
2021/05/17 03:08:49;0.00;0.00;0.62;0.00;0.00;0.62;2.27;0.90;;;26.50;25.60;;;;;;2228934;62;20394;-63
2021/05/17 03:11:21;0.00;0.00;0.62;0.00;0.00;0.62;2.13;1.10;;;26.50;25.60;;;;;;2225199;62;20363;-65
2021/05/17 03:13:52;0.00;0.00;0.62;0.00;0.00;0.62;2.20;1.10;;;26.50;25.60;;;;;;2228080;62;20384;-65
2021/05/17 03:16:21;0.00;0.00;0.62;0.00;0.00;0.62;1.50;0.90;;;26.50;25.60;;;;;;2225803;62;20370;-65
2021/05/17 03:18:49;0.00;0.00;0.62;0.00;0.00;0.62;2.03;0.97;;;26.50;25.60;;;;;;2225458;62;20383;-65
2021/05/17 03:21:19;0.00;0.00;0.62;0.00;0.00;0.62;1.57;0.97;;;26.50;25.50;;;;;;2225504;62;20366;-64
2021/05/17 03:23:47;0.00;0.00;0.62;0.00;0.00;0.62;1.60;1.00;;;26.50;25.50;;;;;;2226053;62;20368;-64
2021/05/17 03:26:15;0.00;0.00;0.62;0.00;0.00;0.62;1.37;0.93;;;26.50;25.50;;;;;;2225522;62;20400;-65
2021/05/17 03:28:41;0.00;0.00;0.62;0.00;0.00;0.62;2.20;0.80;;;26.40;25.50;;;;;;2225393;62;20384;-64
2021/05/17 03:31:08;0.00;0.00;0.62;0.00;0.00;0.62;1.47;0.80;;;26.40;25.50;;;;;;2226075;62;20431;-63
2021/05/17 03:33:35;0.00;0.00;0.62;0.00;0.00;0.62;1.83;0.87;;;26.40;25.50;;;;;;2228267;62;20368;-65
2021/05/17 03:36:02;0.00;0.00;0.62;0.00;0.00;0.62;2.50;1.00;;;26.40;25.50;;;;;;2225515;62;20589;-64
2021/05/17 03:38:29;0.00;0.00;0.62;0.00;0.00;0.62;2.60;0.80;;;26.40;25.50;;;;;;2225954;62;20403;-64
2021/05/17 03:40:55;0.00;0.00;0.62;0.00;0.00;0.62;1.87;1.30;;;26.40;25.50;;;;;;2225656;62;20418;-65
2021/05/17 03:43:22;0.00;0.00;0.62;0.00;0.00;0.62;1.33;0.80;;;26.40;25.50;;;;;;2225207;62;20360;-65
2021/05/17 03:45:48;0.00;0.00;0.62;0.00;0.00;0.62;1.40;1.00;;;26.40;25.50;;;;;;2226069;62;20430;-63
2021/05/17 03:48:15;0.00;0.00;0.62;0.00;0.00;0.62;1.30;0.90;;;26.40;25.60;;;;;;2225480;62;20398;-65
2021/05/17 03:50:42;0.00;0.00;0.62;0.00;0.00;0.62;2.20;0.80;;;26.30;25.60;;;;;;2225172;62;20374;-63
2021/05/17 03:53:09;0.00;0.00;0.62;0.00;0.00;0.62;2.90;0.90;;;26.30;25.70;;;;;;2226240;62;20662;-65
2021/05/17 03:55:36;0.00;0.00;0.62;0.00;0.00;0.62;1.57;1.03;;;26.30;25.60;;;;;;2225584;62;20364;-65
2021/05/17 03:58:02;0.00;0.00;0.62;0.00;0.00;0.62;1.43;1.00;;;26.30;25.60;;;;;;2225104;62;20386;-65
2021/05/17 04:00:30;0.00;0.00;0.62;0.00;0.00;0.62;2.03;1.10;;;26.30;25.60;;;;;;2226028;62;20368;-64
2021/05/17 04:03:00;0.00;0.00;0.62;0.00;0.00;0.62;2.50;1.30;;;26.30;25.60;;;;;;2225672;62;20495;-64
2021/05/17 04:13:23;0.00;0.00;0.62;0.00;0.00;0.62;2.00;1.40;;;26.30;25.50;;;;;;2225253;62;20371;-63
2021/05/17 04:15:52;0.00;0.00;0.62;0.00;0.00;0.62;5.00;1.60;;;26.30;25.50;;;;;;2226034;62;20374;-64
2021/05/17 04:18:20;0.00;0.00;0.62;0.00;0.00;0.62;1.80;1.20;;;26.30;25.50;;;;;;2225054;62;20379;-63
2021/05/17 04:20:48;0.00;0.00;0.62;0.00;0.00;0.62;2.37;1.40;;;26.30;25.40;;;;;;2225498;62;20363;-63
2021/05/17 04:23:19;0.00;0.00;0.62;0.00;0.00;0.62;2.27;1.00;;;26.20;25.30;;;;;;2225958;62;20359;-63
2021/05/17 04:25:46;0.00;0.00;0.62;0.00;0.00;0.62;2.90;1.20;;;26.20;25.40;;;;;;2225094;62;20395;-64
2021/05/17 04:28:13;0.00;0.00;0.62;0.00;0.00;0.62;2.80;1.40;;;26.20;25.40;;;;;;2225496;62;20685;-63
2021/05/17 04:30:39;0.00;0.00;0.62;0.00;0.00;0.62;2.73;1.20;;;26.20;25.40;;;;;;2225978;62;20619;-62
2021/05/17 04:33:06;0.00;0.00;0.62;0.00;0.00;0.62;2.13;1.00;;;26.20;25.40;;;;;;2225059;62;20396;-64
2021/05/17 04:35:32;0.00;0.00;0.62;0.00;0.00;0.62;2.60;1.23;;;26.20;25.40;;;;;;2225396;62;20427;-61
2021/05/17 04:37:59;0.00;0.00;0.62;0.00;0.00;0.62;2.43;1.43;;;26.20;25.40;;;;;;2225804;62;20446;-64
2021/05/17 04:40:27;0.00;0.00;0.62;0.00;0.00;0.62;2.57;1.50;;;26.20;25.30;;;;;;2225142;62;20359;-63
2021/05/17 04:42:53;0.00;0.00;0.62;0.00;0.00;0.62;1.83;1.10;;;26.20;25.40;;;;;;2225655;62;20418;-61
2021/05/17 04:45:23;0.00;0.00;0.62;0.00;0.00;0.62;2.00;1.43;;;26.20;25.40;;;;;;2226494;62;20418;-64
2021/05/17 04:47:50;0.00;0.00;0.62;0.00;0.00;0.62;2.40;1.50;;;26.20;25.40;;;;;;2225623;62;20390;-63
2021/05/17 04:50:16;0.00;0.00;0.62;0.00;0.00;0.62;2.00;1.20;;;26.20;25.50;;;;;;2225851;62;20368;-61
2021/05/17 04:52:43;0.00;0.00;0.62;0.00;0.00;0.62;3.50;1.50;;;26.20;25.50;;;;;;2229220;62;20371;-61
2021/05/17 04:55:10;0.00;0.00;0.62;0.00;0.00;0.62;3.10;1.77;;;26.20;25.50;;;;;;2225873;62;20363;-62
2021/05/17 04:57:38;0.00;0.00;0.62;0.00;0.00;0.62;1.90;1.53;;;26.20;25.50;;;;;;2225908;62;20390;-61
2021/05/17 05:00:08;0.00;0.00;0.62;0.00;0.00;0.62;1.70;1.23;;;26.20;25.60;;;;;;2226492;62;20371;-60
2021/05/17 05:02:34;0.00;0.00;0.62;0.00;0.00;0.62;3.97;1.93;;;26.20;25.60;;;;;;2225869;62;20451;-62
2021/05/17 05:05:01;0.00;0.00;0.62;0.00;0.00;0.62;2.73;1.93;;;26.20;25.60;;;;;;2225820;62;20403;-63
2021/05/17 05:07:28;0.00;0.00;0.62;0.00;0.00;0.62;2.20;1.50;;;26.20;25.70;;;;;;2226399;62;20430;-62
2021/05/17 05:09:54;0.00;0.00;0.62;0.00;0.00;0.62;2.03;1.50;;;26.20;25.60;;;;;;2226037;62;20571;-61
2021/05/17 05:12:21;0.00;0.00;0.62;0.00;0.00;0.62;3.40;1.80;;;26.20;25.70;;;;;;2225792;62;20715;-61
2021/05/17 05:14:48;0.00;0.00;0.62;0.00;0.00;0.62;2.70;2.00;;;26.20;25.70;;;;;;2226554;62;20366;-63
2021/05/17 05:17:15;0.00;0.00;0.62;0.00;0.00;0.62;2.60;1.80;;;26.20;25.70;;;;;;2225831;62;20375;-65
2021/05/17 05:19:41;0.00;0.00;0.62;0.00;0.00;0.62;3.50;1.73;;;26.20;25.70;;;;;;2225748;62;20367;-62
2021/05/17 05:22:08;0.00;0.00;0.62;0.00;0.00;0.62;2.80;2.17;;;26.20;25.70;;;;;;2226704;62;20452;-64
2021/05/17 05:24:35;0.00;0.00;0.62;0.00;0.00;0.62;3.63;2.37;;;26.20;25.70;;;;;;2225898;62;20391;-65
2021/05/17 05:27:13;0.00;0.00;0.62;0.00;0.00;0.62;2.63;1.63;;;26.20;25.70;;;;;;2225507;62;20360;-63
2021/05/17 05:34:47;0.00;0.00;0.62;0.00;0.00;0.62;3.67;2.17;;;26.20;25.60;;;;;;2225836;62;20359;-64
2021/05/17 05:37:14;0.00;0.00;0.62;0.00;0.00;0.62;3.17;1.90;;;26.20;25.70;;;;;;2226468;62;20378;-64
2021/05/17 05:39:40;0.00;0.00;0.62;0.00;0.00;0.62;4.30;2.60;;;26.20;25.70;;;;;;2225717;62;20385;-63
2021/05/17 05:42:07;0.00;0.00;0.62;0.00;0.00;0.62;3.10;1.80;;;26.20;25.70;;;;;;2225869;62;20576;-63
2021/05/17 05:44:42;0.00;0.00;0.62;0.00;0.00;0.62;3.10;1.70;;;26.20;25.70;;;;;;2226352;62;20727;-63
2021/05/17 05:47:11;0.00;0.00;0.62;0.00;0.00;0.62;3.20;1.87;;;26.20;25.70;;;;;;2225794;62;20391;-64
2021/05/17 05:49:38;0.00;0.00;0.62;0.00;0.00;0.62;3.30;2.07;;;26.20;25.70;;;;;;2225903;62;20753;-64
2021/05/17 05:52:06;0.00;0.00;0.62;0.00;0.00;0.62;2.60;1.90;;;26.20;25.70;;;;;;2226439;62;20436;-63
2021/05/17 05:54:32;0.00;0.00;0.62;0.00;0.00;0.62;2.03;1.60;;;26.20;25.70;;;;;;2225642;62;20363;-63
2021/05/17 05:56:59;0.00;0.00;0.62;0.00;0.00;0.62;2.23;1.80;;;26.20;25.70;;;;;;2225743;62;20364;-64
2021/05/17 05:59:25;0.00;0.00;0.62;0.00;0.00;0.62;2.30;1.43;;;26.20;25.70;;;;;;2226525;62;20383;-62
2021/05/17 06:01:52;0.00;0.00;0.62;0.00;0.00;0.62;3.10;1.60;;;26.20;25.70;;;;;;2225678;62;20369;-63
2021/05/17 06:04:20;0.00;0.00;0.62;0.00;0.00;0.62;1.80;1.40;;;26.20;25.70;;;;;;2225690;62;20728;-61
2021/05/17 06:06:48;0.00;0.00;0.62;0.00;0.00;0.62;2.10;1.50;;;26.20;25.70;;;;;;2226398;62;20362;-62
2021/05/17 06:09:15;0.00;0.00;0.62;0.00;0.00;0.62;2.17;1.57;;;26.20;25.70;;;;;;2225561;62;20510;-61
2021/05/17 06:11:42;0.00;0.00;0.62;0.00;0.00;0.62;3.00;1.10;;;26.30;25.70;;;;;;2225662;62;20363;-63
2021/05/17 06:14:10;0.00;0.00;0.62;0.00;0.00;0.62;3.50;1.70;;;26.20;25.70;;;;;;2226524;62;20363;-62
2021/05/17 06:16:38;0.00;0.00;0.62;0.00;0.00;0.62;2.50;1.30;;;26.20;25.70;;;;;;2225523;62;20370;-64
2021/05/17 06:19:06;0.00;0.00;0.62;0.00;0.00;0.62;1.87;1.37;;;26.30;25.70;;;;;;2225822;62;20383;-64
2021/05/17 06:21:33;0.00;0.00;0.62;0.00;0.00;0.62;2.43;1.13;;;26.30;25.70;;;;;;2226418;62;20363;-64
2021/05/17 06:24:03;0.00;0.00;0.62;0.00;0.00;0.62;1.90;1.53;;;26.30;25.80;;;;;;2225485;62;20371;-64
2021/05/17 06:26:30;0.00;0.00;0.62;0.00;0.00;0.62;1.90;1.33;;;26.30;25.80;;;;;;2228430;62;20363;-64
2021/05/17 06:28:59;0.00;0.00;0.62;0.00;0.00;0.62;1.70;1.30;;;26.30;25.80;;;;;;2226355;62;20387;-62
2021/05/17 06:31:26;0.00;0.00;0.62;0.00;0.00;0.62;2.60;1.50;;;26.30;25.80;;;;;;2224982;62;20370;-62
2021/05/17 06:33:53;0.00;0.00;0.62;0.00;0.00;0.62;1.70;1.30;;;26.30;25.70;;;;;;2225696;62;20450;-62
2021/05/17 06:36:20;0.00;0.00;0.62;0.00;0.00;0.62;2.30;1.40;;;26.30;25.70;;;;;;2229094;62;20366;-64
2021/05/17 06:38:47;0.00;0.00;0.62;0.00;0.00;0.62;3.13;1.83;;;26.30;25.80;;;;;;2225354;62;20606;-63
2021/05/17 06:41:14;0.00;0.00;0.62;0.00;0.00;0.62;2.27;1.50;;;26.30;25.70;;;;;;2225777;62;20427;-63
2021/05/17 06:43:41;0.00;0.00;0.62;0.00;0.00;0.62;1.60;1.33;;;26.30;25.80;;;;;;2226309;62;20386;-62
2021/05/17 06:46:09;0.00;0.00;0.62;0.00;0.00;0.62;1.80;1.33;;;26.30;25.70;;;;;;2225398;62;20615;-63
2021/05/17 06:48:42;0.00;0.00;0.62;0.00;0.00;0.62;1.70;1.30;;;26.30;25.80;;;;;;2225406;62;20398;-64
2021/05/17 06:51:15;0.00;0.00;0.62;0.00;0.00;0.62;1.93;1.47;;;26.30;25.70;;;;;;2226318;62;20363;-63
2021/05/17 06:53:43;0.00;0.00;0.62;0.00;0.00;0.62;2.00;1.60;;;26.30;25.70;;;;;;2225372;62;20678;-67
2021/05/17 06:56:55;0.00;0.00;0.62;0.00;0.00;0.62;1.70;1.40;;;26.30;25.70;;;;;;2225845;62;20359;-63
2021/05/17 06:59:02;0.00;0.00;0.62;0.00;0.00;0.62;2.20;1.20;;;26.30;25.70;;;;;;2226149;62;20403;-62
2021/05/17 07:01:30;0.00;0.00;0.62;0.00;0.00;0.62;1.60;1.10;;;26.30;25.70;;;;;;2225600;62;20383;-63
2021/05/17 07:03:57;0.00;0.00;0.62;0.00;0.00;0.62;1.70;1.20;;;26.40;25.70;;;;;;2228543;62;20367;-64
2021/05/17 07:06:27;0.00;0.00;0.62;0.00;0.00;0.62;1.70;1.37;;;26.30;25.60;;;;;;2225833;62;20363;-62
2021/05/17 07:14:11;0.00;0.00;0.62;0.00;0.00;0.62;1.60;1.00;;;26.40;25.70;;;;;;2225477;62;20364;-64
2021/05/17 07:16:38;0.00;0.00;0.62;0.00;0.00;0.62;1.47;1.00;;;26.40;25.70;;;;;;2225390;62;20414;-63
2021/05/17 07:19:04;0.00;0.00;0.62;0.00;0.00;0.62;1.50;1.10;;;26.40;25.70;;;;;;2225991;62;20614;-64
2021/05/17 07:24:19;0.00;0.00;0.62;0.00;0.00;0.62;1.40;1.03;;;26.40;25.70;;;;;;2225163;62;20367;-63
2021/05/17 07:26:46;0.00;0.00;0.62;0.00;0.00;0.62;1.33;0.93;;;26.40;25.70;;;;;;2226060;62;20364;-63
2021/05/17 07:29:14;0.00;0.00;0.62;0.00;0.00;0.62;1.63;1.20;;;26.40;25.70;;;;;;2225608;62;20434;-64
2021/05/17 07:31:41;0.00;0.00;0.62;0.00;0.00;0.62;1.50;1.00;;;26.40;25.70;;;;;;2225187;62;20726;-63
2021/05/17 07:34:07;0.00;0.00;0.62;0.00;0.00;0.62;1.80;1.43;;;26.40;25.70;;;;;;2228848;62;20583;-64
2021/05/17 07:36:34;0.00;0.00;0.62;0.00;0.00;0.62;1.77;1.40;;;26.40;25.80;;;;;;2225638;62;20367;-63
2021/05/17 07:39:00;0.00;0.00;0.62;0.00;0.00;0.62;1.80;1.20;;;26.40;25.70;;;;;;2225152;62;20383;-63
2021/05/17 07:41:27;0.00;0.00;0.62;0.00;0.00;0.62;2.10;1.60;;;26.40;25.70;;;;;;2226068;62;20450;-64
2021/05/17 07:43:53;0.00;0.00;0.62;0.00;0.00;0.62;1.50;1.00;;;26.40;25.70;;;;;;2225697;62;20362;-64
2021/05/17 07:46:21;0.00;0.00;0.62;0.00;0.00;0.62;1.60;1.10;;;26.40;25.70;;;;;;2228128;62;20435;-64
2021/05/17 07:49:08;0.00;0.00;0.62;0.00;0.00;0.62;1.50;0.97;;;26.40;25.70;;;;;;2225639;62;20566;-64
2021/05/17 07:51:36;0.00;0.00;0.62;0.00;0.00;0.62;2.07;1.10;;;26.40;25.70;;;;;;2225640;62;20754;-65
2021/05/17 07:54:03;0.00;0.00;0.62;0.00;0.00;0.62;1.70;1.20;;;26.40;25.70;;;;;;2225216;62;20359;-63
2021/05/17 07:56:30;0.00;0.00;0.62;0.00;0.00;0.62;1.57;1.17;;;26.30;25.70;;;;;;2225544;62;20360;-64
2021/05/17 07:58:58;0.00;0.00;0.62;0.00;0.00;0.62;2.80;1.10;;;26.40;25.80;;;;;;2225606;62;20771;-65
2021/05/17 08:01:25;0.00;0.00;0.62;0.00;0.00;0.62;1.67;1.03;;;26.40;25.70;;;;;;2225059;62;20363;-66
2021/05/17 08:03:52;0.00;0.00;0.62;0.00;0.00;0.62;1.40;1.00;;;26.40;25.70;;;;;;2225974;62;20573;-62
2021/05/17 08:06:18;0.00;0.00;0.62;0.00;0.00;0.62;1.53;1.00;;;26.40;25.70;;;;;;2225602;62;20395;-64
2021/05/17 08:08:45;0.00;0.00;0.62;0.00;0.00;0.62;1.57;1.00;;;26.40;25.70;;;;;;2224935;62;20436;-64
2021/05/17 08:11:12;0.00;0.00;0.62;0.00;0.00;0.62;1.60;1.10;;;26.40;25.80;;;;;;2226029;62;20364;-64
2021/05/17 08:13:39;0.00;0.00;0.62;0.00;0.00;0.62;1.20;0.83;;;26.40;25.70;;;;;;2225622;62;20441;-63
2021/05/17 08:16:06;0.00;0.00;0.62;0.00;0.00;0.62;1.40;0.90;;;26.40;25.70;;;;;;2225084;62;20367;-62
2021/05/17 08:18:34;0.00;0.00;0.62;0.00;0.00;0.62;1.50;1.00;;;26.40;25.80;;;;;;2226535;62;20423;-64
2021/05/17 08:21:01;0.00;0.00;0.62;0.00;0.00;0.62;1.20;0.77;;;26.40;25.70;;;;;;2226349;62;20703;-63
2021/05/17 08:23:28;0.00;0.00;0.62;0.00;0.00;0.62;1.70;1.03;;;26.40;25.80;;;;;;2225672;62;20359;-62
2021/05/17 08:25:54;0.00;0.00;0.62;0.00;0.00;0.62;1.20;0.90;;;26.40;25.70;;;;;;2226529;62;20394;-61
2021/05/17 08:28:21;0.00;0.00;0.62;0.00;0.00;0.62;1.37;1.10;;;26.40;25.70;;;;;;2226131;62;20782;-64
2021/05/17 08:30:54;0.00;0.00;0.62;0.00;0.00;0.62;1.33;1.03;;;26.40;25.70;;;;;;2225934;62;20692;-62
2021/05/17 08:33:22;0.00;0.00;0.62;0.00;0.00;0.62;1.57;1.03;;;26.40;25.70;;;;;;2226613;62;20369;-60
2021/05/17 08:35:50;0.00;0.00;0.62;0.00;0.00;0.62;1.77;1.20;;;26.40;25.70;;;;;;2226385;62;20374;-62
2021/05/17 08:38:17;0.00;0.00;0.62;0.00;0.00;0.62;1.50;1.00;;;26.50;25.80;;;;;;2225725;62;20391;-64
2021/05/17 08:40:48;0.00;0.00;0.62;0.00;0.00;0.62;1.40;0.90;;;26.50;25.70;;;;;;2226519;62;20370;-63
2021/05/17 08:43:14;0.00;0.00;0.62;0.00;0.00;0.62;1.70;1.20;;;26.50;25.70;;;;;;2226291;62;20715;-61
2021/05/17 08:45:43;0.00;0.00;0.62;0.00;0.00;0.62;1.50;0.90;;;26.50;25.70;;;;;;2225604;62;20750;-64
2021/05/17 08:48:10;0.00;0.00;0.62;0.00;0.00;0.62;2.10;1.03;;;26.50;25.70;;;;;;2226399;62;20395;-61
2021/05/17 08:50:38;0.00;0.00;0.62;0.00;0.00;0.62;1.40;1.00;;;26.50;25.70;;;;;;2226281;62;20366;-62
2021/05/17 08:53:06;0.00;0.00;0.62;0.00;0.00;0.62;1.80;1.10;;;26.50;25.70;;;;;;2225548;62;20370;-61
2021/05/17 08:55:33;0.00;0.00;0.62;0.00;0.00;0.62;1.30;0.90;;;26.50;25.70;;;;;;2226519;62;20395;-65
2021/05/17 08:57:59;0.00;0.00;0.62;0.00;0.00;0.62;1.43;1.00;;;26.50;25.70;;;;;;2226341;62;20384;-63
2021/05/17 09:00:26;0.00;0.00;0.62;0.00;0.00;0.62;1.50;0.93;;;26.50;25.60;;;;;;2225666;62;20358;-60
2021/05/17 09:02:53;0.00;0.00;0.62;0.00;0.00;0.62;1.40;0.90;;;26.50;25.60;;;;;;2226471;62;20390;-62
2021/05/17 09:05:23;0.00;0.00;0.62;0.00;0.00;0.62;1.53;1.00;;;26.50;25.60;;;;;;2226299;62;20412;-64
2021/05/17 09:07:52;0.00;0.00;0.62;0.00;0.00;0.62;1.50;0.90;;;26.60;25.70;;;;;;2225560;62;20417;-63
2021/05/17 09:10:22;0.00;0.00;0.62;0.00;0.00;0.62;1.80;1.30;;;26.60;25.70;;;;;;2226584;62;20395;-64
2021/05/17 09:13:01;0.00;0.00;0.62;0.00;0.00;0.62;1.40;0.77;;;26.60;25.70;;;;;;2226232;62;20368;-61
2021/05/17 09:15:35;0.00;0.00;0.62;0.00;0.00;0.62;1.63;0.90;;;26.60;25.70;;;;;;2225542;62;20419;-63
2021/05/17 09:18:07;0.00;0.00;0.62;0.00;0.00;0.62;1.40;1.00;;;26.60;25.70;;;;;;2226598;62;20379;-65
2021/05/17 09:20:37;0.00;0.00;0.62;0.00;0.00;0.62;1.77;1.20;;;26.60;25.60;;;;;;2226178;62;20399;-64
2021/05/17 09:23:16;0.00;0.00;0.62;0.00;0.00;0.62;1.33;1.10;;;26.70;25.70;;;;;;2225567;62;20402;-64
2021/05/17 09:26:10;0.00;0.00;0.62;0.00;0.00;0.62;1.97;1.20;;;26.70;25.60;;;;;;2226601;62;20394;-62
2021/05/17 09:28:40;0.00;0.00;0.62;0.00;0.00;0.62;1.40;0.90;;;26.70;25.60;;;;;;2225757;62;20394;-64
2021/05/17 09:31:09;0.00;0.00;0.62;0.00;0.00;0.62;1.50;0.90;;;26.70;25.60;;;;;;2225577;62;20368;-63
2021/05/17 09:33:43;0.00;0.00;0.62;0.00;0.00;0.62;1.20;0.80;;;26.70;25.60;;;;;;2229409;62;20566;-64
2021/05/17 09:36:25;0.00;0.00;0.62;0.00;0.00;0.62;1.40;0.80;;;26.70;25.60;;;;;;2226117;62;20359;-63
2021/05/17 09:38:56;0.00;0.00;0.62;0.00;0.00;0.62;1.60;1.00;;;26.80;25.60;;;;;;2225785;62;20383;-65
2021/05/17 09:41:36;0.00;0.00;0.62;0.00;0.00;0.62;1.30;0.80;;;26.80;25.60;;;;;;2226626;62;20628;-65
2021/05/17 09:44:03;0.00;0.00;0.62;0.00;0.00;0.62;1.30;1.10;;;26.80;25.50;;;;;;2225704;62;20371;-64
2021/05/17 09:46:47;0.00;0.00;0.62;0.00;0.00;0.62;1.70;1.10;;;26.80;25.50;;;;;;2228684;62;20395;-65
2021/05/17 09:49:14;0.00;0.00;0.62;0.00;0.00;0.62;1.30;0.90;;;26.80;25.50;;;;;;2226450;62;20390;-65
2021/05/17 09:51:40;0.00;0.00;0.62;0.00;0.00;0.62;1.60;1.10;;;26.80;25.50;;;;;;2225692;62;20376;-62
2021/05/17 09:54:12;0.00;0.00;0.62;0.00;0.00;0.62;2.27;1.47;;;26.80;25.50;;;;;;2226071;62;20371;-64
2021/05/17 09:56:40;0.00;0.00;0.62;0.00;0.00;0.62;1.30;0.70;;;26.80;25.50;;;;;;2226407;62;20387;-64
2021/05/17 09:59:08;0.00;0.00;0.62;0.00;0.00;0.62;1.40;1.00;;;26.80;25.50;;;;;;2225646;62;20398;-64
2021/05/17 10:01:35;0.00;0.00;0.62;0.00;0.00;0.62;1.37;0.80;;;26.80;25.50;;;;;;2226255;62;20363;-64
2021/05/17 10:04:03;0.00;0.00;0.62;0.00;0.00;0.62;1.40;0.80;;;26.80;25.50;;;;;;2226368;62;20735;-63
2021/05/17 10:06:31;0.00;0.00;0.62;0.00;0.00;0.62;1.23;0.70;;;26.80;25.50;;;;;;2225839;62;20394;-62
2021/05/17 10:08:58;0.00;0.00;0.62;0.00;0.00;0.62;1.20;0.83;;;26.80;25.50;;;;;;2226176;62;20580;-64